Time;durP1;ratioP1;P1;durP2;ratioP2;P2;SDS_P1;SDS_P2;PMS_P1;PMS_P2;Temp;Humidity;BMP_temperature;BMP_pressure;BME280_temperature;BME280_humidity;BME280_pressure;Samples;Min_cycle;Max_cycle;Signal;HPM_P1;HPM_P2
2021/08/31 00:00:29;;;;;;;17.95;7.85;;;15.10;99.90;;;;;;5066990;28;20037;-76
2021/08/31 00:02:55;;;;;;;21.08;7.57;;;15.00;99.90;;;;;;5067076;28;20032;-75
2021/08/31 00:05:20;;;;;;;18.63;6.57;;;15.00;99.90;;;;;;5066986;28;20036;-76
2021/08/31 00:07:46;;;;;;;12.32;5.60;;;15.00;99.90;;;;;;5066685;28;20075;-75
2021/08/31 00:10:12;;;;;;;14.57;6.32;;;15.00;99.90;;;;;;5082105;28;20033;-75
2021/08/31 00:12:39;;;;;;;16.58;6.97;;;14.90;99.90;;;;;;5066655;28;20017;-78
2021/08/31 00:15:06;;;;;;;12.00;5.43;;;14.90;99.90;;;;;;5066579;28;20029;-77
2021/08/31 00:17:32;;;;;;;21.92;7.13;;;14.90;99.90;;;;;;5081847;28;20048;-76
2021/08/31 00:19:58;;;;;;;20.80;7.57;;;14.90;99.90;;;;;;5065153;28;20033;-77
2021/08/31 00:22:24;;;;;;;13.70;5.82;;;14.90;99.90;;;;;;5066802;28;20417;-76
2021/08/31 00:24:50;;;;;;;16.10;6.38;;;14.80;99.90;;;;;;5066685;28;20017;-76
2021/08/31 00:27:16;;;;;;;15.25;5.18;;;14.80;99.90;;;;;;5081644;28;20155;-75
2021/08/31 00:29:41;;;;;;;17.27;7.43;;;14.80;99.90;;;;;;5081767;28;20028;-77
2021/08/31 00:32:07;;;;;;;14.15;6.35;;;14.70;99.90;;;;;;5065041;28;20031;-76
2021/08/31 00:34:33;;;;;;;13.15;6.55;;;14.70;99.90;;;;;;5065913;28;20033;-76
2021/08/31 00:36:59;;;;;;;21.88;8.10;;;14.60;99.90;;;;;;5066492;28;20086;-76
2021/08/31 00:39:25;;;;;;;13.95;7.20;;;14.70;99.90;;;;;;5066328;28;20036;-76
2021/08/31 00:41:50;;;;;;;21.80;8.65;;;14.60;99.90;;;;;;5066209;28;20055;-76
2021/08/31 00:44:27;;;;;;;22.13;8.55;;;14.60;99.90;;;;;;5065567;28;20032;-76
2021/08/31 00:46:57;;;;;;;17.42;7.93;;;14.60;99.90;;;;;;5081438;28;20028;-77
2021/08/31 00:49:25;;;;;;;23.25;7.95;;;14.50;99.90;;;;;;5066015;28;20036;-77
2021/08/31 00:51:53;;;;;;;22.63;7.97;;;14.50;99.90;;;;;;5080943;28;20494;-77
2021/08/31 00:54:19;;;;;;;15.40;8.43;;;14.50;99.90;;;;;;5065698;28;20017;-75
2021/08/31 00:56:46;;;;;;;19.42;8.18;;;14.40;99.90;;;;;;5064438;28;20025;-76
2021/08/31 00:59:13;;;;;;;20.77;8.30;;;14.50;99.90;;;;;;5065709;28;20017;-75
2021/08/31 01:01:39;;;;;;;22.00;8.05;;;14.40;99.90;;;;;;5065588;28;20056;-76
2021/08/31 01:04:05;;;;;;;14.15;7.00;;;14.40;99.90;;;;;;5081221;28;20029;-76
2021/08/31 01:06:31;;;;;;;16.80;7.95;;;14.40;99.90;;;;;;5081256;28;20033;-75
2021/08/31 01:08:58;;;;;;;17.00;7.30;;;14.30;99.90;;;;;;5065551;28;20386;-74
2021/08/31 01:11:25;;;;;;;24.30;8.68;;;14.30;99.90;;;;;;5065878;28;20029;-73
2021/08/31 01:13:51;;;;;;;17.02;8.38;;;14.30;99.90;;;;;;5065754;28;20032;-75
2021/08/31 01:16:16;;;;;;;17.20;8.20;;;14.30;99.90;;;;;;5065577;28;20029;-75
2021/08/31 01:18:42;;;;;;;14.95;7.28;;;14.30;99.90;;;;;;5065247;28;20498;-74
2021/08/31 01:21:12;;;;;;;15.82;6.88;;;14.30;99.90;;;;;;5065320;28;20055;-75
2021/08/31 01:23:37;;;;;;;14.13;7.25;;;14.30;99.90;;;;;;5080772;28;20025;-75
2021/08/31 01:26:04;;;;;;;17.92;7.85;;;14.20;99.90;;;;;;5065710;28;20040;-74
2021/08/31 01:28:35;;;;;;;18.33;8.45;;;14.20;99.90;;;;;;5065253;28;20045;-75
2021/08/31 01:31:03;;;;;;;19.17;7.20;;;14.10;99.90;;;;;;5065234;28;20025;-75
2021/08/31 01:33:31;;;;;;;14.45;6.78;;;14.10;99.90;;;;;;5065019;28;20094;-76
2021/08/31 01:35:58;;;;;;;21.05;7.90;;;14.10;99.90;;;;;;5065358;28;20024;-77
2021/08/31 01:38:23;;;;;;;20.77;8.63;;;14.10;99.90;;;;;;5065172;28;20033;-77
2021/08/31 01:40:50;;;;;;;18.13;8.52;;;14.10;99.90;;;;;;5065244;28;20025;-75
2021/08/31 01:43:26;;;;;;;25.25;7.28;;;14.10;99.90;;;;;;5064974;28;20029;-75
2021/08/31 01:45:53;;;;;;;20.58;7.93;;;14.10;99.90;;;;;;5065138;28;20025;-76
2021/08/31 01:48:19;;;;;;;16.25;7.10;;;14.10;99.90;;;;;;5080301;28;20037;-76
2021/08/31 01:50:45;;;;;;;24.15;7.55;;;14.20;99.90;;;;;;5064921;28;20059;-77
2021/08/31 01:53:11;;;;;;;14.80;6.78;;;14.10;99.90;;;;;;5064837;28;20033;-75
2021/08/31 01:55:37;;;;;;;14.73;7.60;;;14.10;99.90;;;;;;5080275;28;20021;-77
2021/08/31 01:58:03;;;;;;;31.30;7.28;;;14.10;99.90;;;;;;5064788;28;20084;-75
2021/08/31 02:00:29;;;;;;;18.45;6.15;;;14.10;99.90;;;;;;5064782;28;20036;-76
2021/08/31 02:02:56;;;;;;;32.47;6.72;;;14.10;99.90;;;;;;5080137;28;20055;-76
2021/08/31 02:05:25;;;;;;;10.80;6.05;;;14.10;99.90;;;;;;5064366;28;20025;-78
2021/08/31 02:07:51;;;;;;;12.85;7.15;;;14.10;99.90;;;;;;5080317;28;20059;-77
2021/08/31 02:10:16;;;;;;;12.20;5.97;;;14.00;99.90;;;;;;5064660;28;20501;-75
2021/08/31 02:12:42;;;;;;;10.85;5.30;;;14.00;99.90;;;;;;5064585;28;20033;-76
2021/08/31 02:15:08;;;;;;;31.48;6.47;;;14.00;99.90;;;;;;5063355;28;20025;-75
2021/08/31 02:17:34;;;;;;;11.35;5.90;;;14.00;99.90;;;;;;5079532;28;20052;-75
2021/08/31 02:19:59;;;;;;;13.52;6.60;;;14.00;99.90;;;;;;5079951;28;20400;-75
2021/08/31 02:22:25;;;;;;;17.58;6.55;;;14.00;99.90;;;;;;5063407;28;20029;-76
2021/08/31 02:24:51;;;;;;;27.75;6.95;;;14.00;99.90;;;;;;5064559;28;20021;-77
2021/08/31 02:27:16;;;;;;;11.48;5.90;;;13.90;99.90;;;;;;5079927;28;20029;-74
2021/08/31 02:29:42;;;;;;;11.60;5.70;;;13.90;99.90;;;;;;5063172;28;20044;-75
2021/08/31 02:32:07;;;;;;;44.20;6.35;;;13.90;99.90;;;;;;5064367;28;20466;-76
2021/08/31 02:34:33;;;;;;;12.38;6.07;;;13.80;99.90;;;;;;5063067;28;20037;-76
2021/08/31 02:36:59;;;;;;;24.23;6.18;;;13.80;99.90;;;;;;5063084;28;20044;-76
2021/08/31 02:39:25;;;;;;;12.73;6.45;;;13.80;99.90;;;;;;5079372;28;20021;-75
2021/08/31 02:41:51;;;;;;;21.45;6.75;;;13.70;99.90;;;;;;5062820;28;20398;-76
2021/08/31 02:44:17;;;;;;;14.75;7.15;;;13.70;99.90;;;;;;5064341;28;20025;-75
2021/08/31 02:46:42;;;;;;;14.50;7.18;;;13.60;99.90;;;;;;5063025;28;20026;-78
2021/08/31 02:49:08;;;;;;;12.38;6.50;;;13.60;99.90;;;;;;5064198;28;20151;-77
2021/08/31 02:51:34;;;;;;;15.57;6.93;;;13.60;99.90;;;;;;5064364;28;20029;-78
2021/08/31 02:53:59;;;;;;;10.80;6.28;;;13.60;99.90;;;;;;5062781;28;20398;-78
2021/08/31 02:56:25;;;;;;;19.90;8.57;;;13.60;99.90;;;;;;5062867;28;20072;-78
2021/08/31 02:58:50;;;;;;;13.20;7.82;;;13.60;99.90;;;;;;5062968;28;20097;-76
2021/08/31 03:03:55;;;;;;;25.52;7.20;;;13.60;99.90;;;;;;5064503;28;20508;-76
2021/08/31 03:06:21;;;;;;;16.42;7.13;;;13.60;99.90;;;;;;5064576;28;20056;-77
2021/08/31 03:08:46;;;;;;;18.42;6.80;;;13.50;99.90;;;;;;5064119;28;20036;-78
2021/08/31 03:11:12;;;;;;;16.75;7.57;;;13.60;99.90;;;;;;5064041;28;20064;-76
2021/08/31 03:13:37;;;;;;;16.88;7.97;;;13.50;99.90;;;;;;5062558;28;20036;-76
2021/08/31 03:16:03;;;;;;;15.15;7.10;;;13.40;99.90;;;;;;5064109;28;20032;-77
2021/08/31 03:18:29;;;;;;;19.13;8.15;;;13.40;99.90;;;;;;5066422;28;20048;-76
2021/08/31 03:20:54;;;;;;;16.42;7.15;;;13.30;99.90;;;;;;5067903;28;20059;-76
2021/08/31 03:23:20;;;;;;;19.48;8.10;;;13.40;99.90;;;;;;5067846;28;20028;-76
2021/08/31 03:25:45;;;;;;;13.55;7.65;;;13.40;99.90;;;;;;5067540;28;20112;-76
2021/08/31 03:28:12;;;;;;;16.73;7.35;;;13.30;99.90;;;;;;5066158;28;20140;-76
2021/08/31 03:30:39;;;;;;;14.13;6.18;;;13.30;99.90;;;;;;5066064;28;20020;-76
2021/08/31 03:33:05;;;;;;;16.85;6.82;;;13.30;99.90;;;;;;5067426;28;20029;-75
2021/08/31 03:35:30;;;;;;;13.45;7.03;;;13.20;99.90;;;;;;5067481;28;20036;-75
2021/08/31 03:37:56;;;;;;;22.92;8.20;;;13.20;99.90;;;;;;5066143;28;20029;-77
2021/08/31 03:40:21;;;;;;;12.45;7.35;;;13.20;99.90;;;;;;5067753;28;20055;-76
2021/08/31 03:42:47;;;;;;;12.77;6.88;;;13.20;99.90;;;;;;5067424;28;20409;-77
2021/08/31 03:45:14;;;;;;;13.55;7.35;;;13.10;99.90;;;;;;5065849;28;20017;-76
2021/08/31 03:47:40;;;;;;;13.27;7.60;;;13.10;99.90;;;;;;5065697;28;20069;-76
2021/08/31 03:50:06;;;;;;;13.82;6.78;;;13.10;99.90;;;;;;5067172;28;20028;-76
2021/08/31 03:52:32;;;;;;;18.25;8.07;;;13.10;99.90;;;;;;5067196;28;20025;-75
2021/08/31 03:54:58;;;;;;;15.32;6.72;;;13.10;99.90;;;;;;5067100;28;20063;-75
2021/08/31 03:57:23;;;;;;;16.02;6.78;;;13.10;99.90;;;;;;5066866;28;20029;-75
2021/08/31 03:59:49;;;;;;;18.33;7.18;;;13.00;99.90;;;;;;5067307;28;20029;-76
2021/08/31 04:02:15;;;;;;;14.48;6.68;;;13.00;99.90;;;;;;5066900;28;20390;-75
2021/08/31 04:04:41;;;;;;;17.48;7.63;;;13.00;99.90;;;;;;5065395;28;20109;-77
2021/08/31 04:07:07;;;;;;;14.82;7.13;;;13.00;99.90;;;;;;5066932;28;20036;-75
2021/08/31 04:09:32;;;;;;;15.82;7.65;;;13.00;99.90;;;;;;5066679;28;20037;-75
2021/08/31 04:11:58;;;;;;;11.43;5.95;;;13.00;99.90;;;;;;5065621;28;20032;-77
2021/08/31 04:14:24;;;;;;;16.20;7.55;;;13.00;99.90;;;;;;5066970;28;20025;-76
2021/08/31 04:16:50;;;;;;;16.42;6.68;;;12.90;99.90;;;;;;5065410;28;20029;-75
2021/08/31 04:19:15;;;;;;;16.83;7.47;;;12.90;99.90;;;;;;5065211;28;20509;-76
2021/08/31 04:21:41;;;;;;;14.30;6.90;;;12.90;99.90;;;;;;5065141;28;20033;-77
2021/08/31 04:24:07;;;;;;;23.50;6.75;;;12.90;99.90;;;;;;5066532;28;20366;-76
2021/08/31 04:26:33;;;;;;;15.82;7.05;;;12.90;99.90;;;;;;5066304;28;20040;-77
2021/08/31 04:28:58;;;;;;;15.40;5.88;;;12.80;99.90;;;;;;5065227;28;20045;-75
2021/08/31 04:31:24;;;;;;;13.18;6.60;;;12.70;99.90;;;;;;5065293;28;20025;-77
2021/08/31 04:33:51;;;;;;;12.05;6.22;;;12.80;99.90;;;;;;5066492;28;20025;-76
2021/08/31 04:36:17;;;;;;;13.18;6.22;;;12.80;99.90;;;;;;5066291;28;20025;-75
2021/08/31 04:38:42;;;;;;;13.23;5.95;;;12.80;99.90;;;;;;5064842;28;20037;-76
2021/08/31 04:41:08;;;;;;;9.48;6.03;;;12.70;99.90;;;;;;5064831;28;20025;-76
2021/08/31 04:43:34;;;;;;;13.45;6.65;;;12.70;99.90;;;;;;5066043;28;20053;-77
2021/08/31 04:45:59;;;;;;;17.00;5.78;;;12.70;99.90;;;;;;5066252;28;20092;-77
2021/08/31 04:48:25;;;;;;;11.98;6.07;;;12.70;99.90;;;;;;5064653;28;20040;-77
2021/08/31 04:50:53;;;;;;;16.33;6.28;;;12.70;99.90;;;;;;5066239;28;20033;-78
2021/08/31 04:53:20;;;;;;;12.15;5.97;;;12.70;99.90;;;;;;5064802;28;20063;-75
2021/08/31 04:55:46;;;;;;;9.90;5.38;;;12.70;99.90;;;;;;5066165;28;20033;-78
2021/08/31 04:58:12;;;;;;;13.90;5.55;;;12.70;99.90;;;;;;5064517;28;20070;-76
2021/08/31 05:00:38;;;;;;;15.18;5.88;;;12.70;99.90;;;;;;5064571;28;20033;-77
2021/08/31 05:03:07;;;;;;;9.60;5.00;;;12.70;99.90;;;;;;5065748;28;20079;-77
2021/08/31 05:05:32;;;;;;;17.73;5.47;;;12.70;99.90;;;;;;5064375;28;20021;-78
2021/08/31 05:07:59;;;;;;;10.15;5.20;;;12.70;99.90;;;;;;5064490;28;20124;-75
2021/08/31 05:10:24;;;;;;;15.48;5.47;;;12.70;99.90;;;;;;5065534;28;20029;-76
2021/08/31 05:12:50;;;;;;;17.25;5.20;;;12.80;99.90;;;;;;5079804;28;20025;-77
2021/08/31 05:15:16;;;;;;;10.43;4.75;;;12.70;99.90;;;;;;5065619;28;20028;-78
2021/08/31 05:17:42;;;;;;;11.30;5.25;;;12.80;99.90;;;;;;5058454;28;20061;-79
2021/08/31 05:20:09;;;;;;;11.98;4.68;;;12.80;99.90;;;;;;5051335;28;20429;-78
2021/08/31 05:22:35;;;;;;;10.23;4.88;;;12.80;99.90;;;;;;5051786;28;20029;-77
2021/08/31 05:25:02;;;;;;;6.53;4.07;;;12.90;99.90;;;;;;5063745;28;20025;-78
2021/08/31 05:27:29;;;;;;;14.43;5.28;;;12.90;99.90;;;;;;5064777;28;20041;-76
2021/08/31 05:29:55;;;;;;;8.82;4.32;;;12.90;99.90;;;;;;5064022;28;20479;-80
2021/08/31 05:32:21;;;;;;;8.95;4.28;;;12.90;99.90;;;;;;5062794;28;20025;-79
2021/08/31 05:34:47;;;;;;;11.30;5.30;;;12.90;99.90;;;;;;5063945;28;20116;-78
2021/08/31 05:37:13;;;;;;;9.10;4.57;;;13.00;99.90;;;;;;5063959;28;20500;-80
2021/08/31 05:39:39;;;;;;;17.92;5.15;;;13.00;99.90;;;;;;5060967;28;20029;-78
2021/08/31 05:42:07;;;;;;;11.63;4.18;;;13.00;99.90;;;;;;5063902;28;20037;-78
2021/08/31 05:44:35;;;;;;;11.27;5.22;;;13.10;99.90;;;;;;5064740;28;20043;-79
2021/08/31 05:47:02;;;;;;;11.38;4.85;;;13.10;99.90;;;;;;5080257;28;20085;-78
2021/08/31 05:49:29;;;;;;;20.45;4.53;;;13.20;99.90;;;;;;5061636;28;20481;-79
2021/08/31 05:51:55;;;;;;;13.07;5.32;;;13.30;99.90;;;;;;5050972;28;20033;-78
2021/08/31 05:54:24;;;;;;;12.70;4.68;;;13.30;99.90;;;;;;5053937;28;20082;-78
2021/08/31 05:56:50;;;;;;;12.43;5.15;;;13.40;99.90;;;;;;5042746;28;20190;-78
2021/08/31 05:59:15;;;;;;;10.98;4.45;;;13.40;99.90;;;;;;5062910;28;20036;-80
2021/08/31 06:01:43;;;;;;;9.55;4.28;;;13.50;99.90;;;;;;5062937;28;20025;-79
2021/08/31 06:04:09;;;;;;;22.77;4.88;;;13.50;99.90;;;;;;5072363;28;20033;-80
2021/08/31 06:06:35;;;;;;;10.63;4.55;;;13.60;99.90;;;;;;5063183;28;20032;-79
2021/08/31 06:09:00;;;;;;;6.85;3.85;;;13.60;99.90;;;;;;5062658;28;20074;-79
2021/08/31 06:11:29;;;;;;;9.82;4.88;;;13.70;99.90;;;;;;5063274;28;20052;-79
2021/08/31 06:13:55;;;;;;;11.57;3.88;;;13.70;99.90;;;;;;5063988;28;20025;-80
2021/08/31 06:16:21;;;;;;;8.18;3.92;;;13.80;99.90;;;;;;5079199;28;20068;-80
2021/08/31 06:18:47;;;;;;;12.07;4.50;;;13.80;99.90;;;;;;5063515;28;20056;-79
2021/08/31 06:21:12;;;;;;;13.18;5.30;;;13.90;99.90;;;;;;5062820;28;20029;-80
2021/08/31 06:23:38;;;;;;;14.25;4.90;;;13.90;99.90;;;;;;5064305;28;20029;-81
2021/08/31 06:26:04;;;;;;;11.07;4.60;;;14.00;99.90;;;;;;5064542;28;20032;-81
2021/08/31 06:28:29;;;;;;;10.25;4.80;;;14.00;99.90;;;;;;5064405;28;20090;-80
2021/08/31 06:30:55;;;;;;;19.38;4.10;;;14.10;99.90;;;;;;5063279;28;20033;-79
2021/08/31 06:33:21;;;;;;;8.43;3.47;;;14.10;99.90;;;;;;5064460;28;20033;-80
2021/08/31 06:35:47;;;;;;;8.30;4.25;;;14.20;99.90;;;;;;5063207;28;20029;-80
2021/08/31 06:38:13;;;;;;;7.43;3.97;;;14.30;99.90;;;;;;5062808;28;20052;-78
2021/08/31 06:40:38;;;;;;;7.70;4.18;;;14.30;99.90;;;;;;5064420;28;20072;-79
2021/08/31 06:43:04;;;;;;;10.82;4.10;;;14.30;99.90;;;;;;5064237;28;20112;-78
2021/08/31 06:45:29;;;;;;;7.72;3.50;;;14.40;99.90;;;;;;5062801;28;20055;-80
2021/08/31 06:47:55;;;;;;;10.02;3.80;;;14.50;99.90;;;;;;5064433;28;20047;-79
2021/08/31 06:50:21;;;;;;;7.63;3.70;;;14.50;99.90;;;;;;5064529;28;20041;-77
2021/08/31 06:52:47;;;;;;;7.85;3.50;;;14.60;99.90;;;;;;5066723;28;20117;-78
2021/08/31 06:55:14;;;;;;;9.55;3.17;;;14.70;99.90;;;;;;5068148;28;20029;-78
2021/08/31 06:57:40;;;;;;;4.85;2.58;;;14.80;99.90;;;;;;5065864;28;20037;-78
2021/08/31 07:00:07;;;;;;;7.97;3.25;;;14.90;99.90;;;;;;5066799;28;20029;-79
2021/08/31 07:02:33;;;;;;;6.90;3.58;;;15.00;99.90;;;;;;5068019;28;20059;-77
2021/08/31 07:04:59;;;;;;;5.07;3.13;;;15.00;99.90;;;;;;5067945;28;20025;-79
2021/08/31 07:07:25;;;;;;;11.40;4.20;;;15.10;99.90;;;;;;5068104;28;20037;-79
2021/08/31 07:09:53;;;;;;;9.57;4.15;;;15.20;99.90;;;;;;5066858;28;20456;-79
2021/08/31 07:12:18;;;;;;;7.43;3.85;;;15.20;99.90;;;;;;5068276;28;20075;-78
2021/08/31 07:14:44;;;;;;;10.75;3.85;;;15.20;99.90;;;;;;5068207;28;20033;-79
2021/08/31 07:17:09;;;;;;;10.35;3.55;;;15.30;99.90;;;;;;5067679;28;20037;-79
2021/08/31 07:19:35;;;;;;;5.85;3.13;;;15.30;99.90;;;;;;5067954;28;20024;-78
2021/08/31 07:22:01;;;;;;;7.93;2.90;;;15.40;99.90;;;;;;5059411;28;20042;-77
2021/08/31 07:24:28;;;;;;;10.68;3.92;;;15.50;99.90;;;;;;5047869;28;20034;-78
2021/08/31 07:26:55;;;;;;;6.90;3.53;;;15.60;99.90;;;;;;5050010;28;20060;-78
2021/08/31 07:29:22;;;;;;;7.30;3.75;;;15.70;99.90;;;;;;5063336;28;20071;-79
2021/08/31 07:31:50;;;;;;;10.70;3.72;;;15.70;99.90;;;;;;5067618;28;20037;-77
2021/08/31 07:34:16;;;;;;;5.70;3.40;;;15.80;99.90;;;;;;5067434;28;20029;-80
2021/08/31 07:36:41;;;;;;;5.93;3.00;;;15.90;99.90;;;;;;5082762;28;20075;-77
2021/08/31 07:39:07;;;;;;;5.50;2.72;;;16.00;99.90;;;;;;5063057;28;20091;-79
2021/08/31 07:41:32;;;;;;;5.10;2.65;;;15.90;99.90;;;;;;5058208;28;20041;-80
2021/08/31 07:43:58;;;;;;;8.27;2.88;;;16.00;99.90;;;;;;5061415;28;20035;-78
2021/08/31 07:46:24;;;;;;;5.05;2.42;;;16.20;99.90;;;;;;5053108;28;20024;-80
2021/08/31 07:48:50;;;;;;;6.68;3.13;;;16.30;99.90;;;;;;5066827;28;20118;-77
2021/08/31 07:51:16;;;;;;;5.00;2.65;;;16.30;99.90;;;;;;5082126;28;20029;-75
2021/08/31 07:53:42;;;;;;;5.60;3.08;;;16.40;99.90;;;;;;5066524;28;20063;-77
2021/08/31 07:56:10;;;;;;;6.60;3.13;;;16.50;99.90;;;;;;5066435;28;20033;-78
2021/08/31 07:58:36;;;;;;;5.63;2.95;;;16.60;99.90;;;;;;5064139;28;20033;-77
2021/08/31 08:01:03;;;;;;;6.78;2.92;;;16.60;99.90;;;;;;5064754;28;20040;-76
2021/08/31 08:03:29;;;;;;;4.95;2.72;;;16.70;99.90;;;;;;5065233;28;20032;-78
2021/08/31 08:05:54;;;;;;;6.22;2.70;;;16.80;99.90;;;;;;5066688;28;20053;-77
2021/08/31 08:08:20;;;;;;;6.05;2.70;;;16.90;99.90;;;;;;5066552;28;20041;-75
2021/08/31 08:10:45;;;;;;;9.13;2.92;;;17.00;99.90;;;;;;5065827;28;20040;-78
2021/08/31 08:13:11;;;;;;;7.88;3.50;;;16.90;99.90;;;;;;5065979;28;20029;-76
2021/08/31 08:15:40;;;;;;;4.85;2.55;;;17.10;99.90;;;;;;5065383;28;20033;-78
2021/08/31 08:18:06;;;;;;;4.38;2.15;;;17.20;99.90;;;;;;5054035;28;20056;-77
2021/08/31 08:20:32;;;;;;;8.00;2.60;;;17.40;99.90;;;;;;5055948;28;20069;-76
2021/08/31 08:22:57;;;;;;;2.50;1.77;;;17.50;99.90;;;;;;5060717;28;20517;-79
2021/08/31 08:25:23;;;;;;;5.60;2.30;;;17.70;99.90;;;;;;5066429;28;20029;-78
2021/08/31 08:27:49;;;;;;;5.50;2.17;;;17.70;99.90;;;;;;5066142;28;20040;-78
2021/08/31 08:30:17;;;;;;;3.55;2.00;;;17.80;99.90;;;;;;5081718;28;20029;-78
2021/08/31 08:32:43;;;;;;;4.10;2.15;;;17.90;99.90;;;;;;5066343;28;20044;-79
2021/08/31 08:35:12;;;;;;;7.55;2.08;;;18.00;99.90;;;;;;5066012;28;20033;-77
2021/08/31 08:37:39;;;;;;;4.07;2.17;;;18.10;99.90;;;;;;5053408;28;20022;-78
2021/08/31 08:40:06;;;;;;;7.28;2.10;;;18.20;99.90;;;;;;5055790;28;20554;-75
2021/08/31 08:42:32;;;;;;;2.17;1.48;;;18.30;99.90;;;;;;5067371;28;20044;-79
2021/08/31 08:44:59;;;;;;;3.50;1.60;;;18.30;99.90;;;;;;5053886;28;20024;-77
2021/08/31 08:47:26;;;;;;;4.80;1.80;;;18.40;99.90;;;;;;5055626;28;20371;-75
2021/08/31 08:49:51;;;;;;;5.22;2.55;;;18.40;99.90;;;;;;5064943;28;20053;-78
2021/08/31 08:52:17;;;;;;;3.45;2.17;;;18.60;99.90;;;;;;5065041;28;20059;-77
2021/08/31 08:54:43;;;;;;;5.75;2.42;;;18.70;99.90;;;;;;5064759;28;20036;-77
2021/08/31 08:57:09;;;;;;;2.70;1.63;;;18.80;99.90;;;;;;5062750;28;20128;-78
2021/08/31 08:59:38;;;;;;;4.85;2.38;;;18.90;99.90;;;;;;5043773;28;20115;-77
2021/08/31 09:02:04;;;;;;;3.00;1.85;;;19.10;99.90;;;;;;5050521;28;20017;-76
2021/08/31 09:04:45;;;;;;;4.68;2.03;;;19.20;99.90;;;;;;5065065;28;20029;-75
2021/08/31 09:07:23;;;;;;;5.93;2.55;;;19.30;99.90;;;;;;5049460;28;20033;-77
2021/08/31 09:10:12;;;;;;;5.13;2.15;;;19.30;99.90;;;;;;5060361;28;20041;-78
2021/08/31 09:12:40;;;;;;;8.55;1.88;;;19.30;99.90;;;;;;5050351;28;20025;-77
2021/08/31 09:15:40;;;;;;;5.63;2.22;;;19.40;99.90;;;;;;5063827;28;20028;-79
2021/08/31 09:18:19;;;;;;;4.05;1.98;;;19.40;99.90;;;;;;5047954;28;20049;-78
2021/08/31 09:21:02;;;;;;;6.50;2.03;;;19.50;99.90;;;;;;5061686;28;20055;-79
2021/08/31 09:23:31;;;;;;;4.63;2.10;;;19.60;99.90;;;;;;5051474;28;20029;-78
2021/08/31 09:26:06;;;;;;;4.30;2.00;;;19.60;99.90;;;;;;5052130;28;20029;-78
2021/08/31 09:28:38;;;;;;;3.90;2.05;;;19.60;99.90;;;;;;5058274;28;20044;-77
2021/08/31 09:31:09;;;;;;;3.50;2.10;;;19.80;99.90;;;;;;5060400;28;20028;-78
2021/08/31 09:33:43;;;;;;;4.88;2.10;;;19.80;99.90;;;;;;5061561;28;20021;-79
2021/08/31 09:36:20;;;;;;;3.08;1.83;;;20.00;99.90;;;;;;5064199;28;20033;-79
2021/08/31 09:38:55;;;;;;;4.00;2.13;;;20.10;99.90;;;;;;5048030;28;20125;-79
2021/08/31 09:41:26;;;;;;;8.45;2.15;;;20.20;99.90;;;;;;5055766;28;20029;-74
2021/08/31 09:43:52;;;;;;;3.88;2.15;;;20.30;99.90;;;;;;5064167;28;20029;-76
2021/08/31 09:46:18;;;;;;;2.97;1.85;;;20.50;99.90;;;;;;5063621;28;20033;-78
2021/08/31 09:48:44;;;;;;;6.70;1.73;;;20.40;99.90;;;;;;5063705;28;20051;-78
2021/08/31 09:51:14;;;;;;;7.70;1.83;;;20.50;99.90;;;;;;5062662;28;20068;-77
2021/08/31 09:53:41;;;;;;;7.18;1.98;;;20.60;99.90;;;;;;5063575;28;20094;-81
2021/08/31 09:56:12;;;;;;;4.03;1.95;;;20.80;99.90;;;;;;5063773;28;20025;-82
2021/08/31 09:58:43;;;;;;;4.03;1.88;;;20.80;99.90;;;;;;5063932;28;20048;-80
2021/08/31 10:01:09;;;;;;;5.20;1.92;;;21.00;99.90;;;;;;5064033;28;20052;-77
2021/08/31 10:03:35;;;;;;;5.68;1.88;;;21.10;99.90;;;;;;5062319;28;20086;-80
2021/08/31 10:06:03;;;;;;;5.18;2.20;;;21.20;99.90;;;;;;5062717;28;20029;-80
2021/08/31 10:08:33;;;;;;;2.47;1.85;;;21.30;99.90;;;;;;5063967;28;20036;-79
2021/08/31 10:11:01;;;;;;;5.00;1.95;;;21.40;99.90;;;;;;5063743;28;20029;-78
2021/08/31 10:13:27;;;;;;;3.85;2.38;;;21.40;99.90;;;;;;5064370;28;20025;-81
2021/08/31 10:15:58;;;;;;;3.75;2.03;;;21.50;99.90;;;;;;5063179;28;20030;-77
2021/08/31 10:18:28;;;;;;;2.80;1.90;;;21.50;99.90;;;;;;5064054;28;20092;-79
2021/08/31 10:21:07;;;;;;;7.18;1.92;;;21.50;99.90;;;;;;5063348;28;20036;-80
2021/08/31 10:23:43;;;;;;;9.30;2.13;;;21.50;99.90;;;;;;5064688;28;20040;-80
2021/08/31 10:26:34;;;;;;;4.05;1.75;;;21.60;99.90;;;;;;5067404;28;20028;-78
2021/08/31 10:29:19;;;;;;;3.97;2.40;;;21.80;99.90;;;;;;5068418;28;20037;-76
2021/08/31 10:32:04;;;;;;;3.55;1.70;;;21.90;99.90;;;;;;5067070;28;20029;-79
2021/08/31 10:34:30;;;;;;;6.25;2.47;;;21.90;99.90;;;;;;5083226;28;20048;-76
2021/08/31 10:37:04;;;;;;;5.35;1.45;;;21.90;99.90;;;;;;5066658;28;20025;-79
2021/08/31 10:39:52;;;;;;;3.38;1.90;;;21.90;99.90;;;;;;5066224;28;20097;-76
2021/08/31 10:42:26;;;;;;;4.55;2.38;;;22.10;99.90;;;;;;5067968;28;20041;-75
2021/08/31 10:44:54;;;;;;;3.53;1.63;;;22.20;99.90;;;;;;5068113;28;20078;-79
2021/08/31 10:47:38;;;;;;;3.53;1.83;;;22.30;99.90;;;;;;5066634;28;20044;-79
2021/08/31 10:50:05;;;;;;;3.92;1.88;;;22.40;99.90;;;;;;5068097;28;20052;-79
2021/08/31 10:52:50;;;;;;;3.60;1.80;;;22.50;99.90;;;;;;5066136;28;20039;-77
2021/08/31 10:55:26;;;;;;;9.75;1.77;;;22.60;99.90;;;;;;5068253;28;20033;-80
2021/08/31 10:57:57;;;;;;;5.95;2.00;;;22.70;99.90;;;;;;5066357;28;20024;-76
2021/08/31 11:00:27;;;;;;;1.80;1.30;;;22.80;99.90;;;;;;5068265;28;20025;-79
2021/08/31 11:02:53;;;;;;;3.53;1.75;;;23.00;99.90;;;;;;5066621;28;20028;-79
2021/08/31 11:05:25;;;;;;;1.58;1.27;;;23.10;99.90;;;;;;5066933;28;20126;-79
2021/08/31 11:08:02;;;;;;;4.68;1.67;;;23.10;99.90;;;;;;5067005;28;20078;-78
2021/08/31 11:10:30;;;;;;;3.97;1.70;;;23.20;99.90;;;;;;5067535;28;20040;-75
2021/08/31 11:13:06;;;;;;;4.03;1.65;;;23.30;99.90;;;;;;5067846;28;20052;-75
2021/08/31 11:15:33;;;;;;;5.75;2.35;;;23.30;99.90;;;;;;5067217;28;20024;-78
2021/08/31 11:17:58;;;;;;;2.95;1.67;;;23.20;99.90;;;;;;5065617;28;20057;-79
2021/08/31 11:20:31;;;;;;;3.67;1.98;;;23.30;99.90;;;;;;5066620;28;20028;-79
2021/08/31 11:23:03;;;;;;;2.65;1.23;;;23.40;99.90;;;;;;5066183;28;20032;-79
2021/08/31 11:25:49;;;;;;;11.02;1.90;;;23.70;99.90;;;;;;5067142;28;20024;-76
2021/08/31 11:28:25;;;;;;;2.90;1.67;;;23.70;99.90;;;;;;5067276;28;20040;-76
2021/08/31 11:30:56;;;;;;;4.68;1.85;;;23.50;99.90;;;;;;5065909;28;20093;-79
2021/08/31 11:33:27;;;;;;;3.13;1.92;;;23.40;99.90;;;;;;5067533;28;20017;-79
2021/08/31 11:36:14;;;;;;;4.53;1.63;;;23.50;99.90;;;;;;5065514;28;20099;-79
2021/08/31 11:38:53;;;;;;;3.05;1.63;;;23.70;99.90;;;;;;5065573;28;20066;-78
2021/08/31 11:41:42;;;;;;;3.42;1.85;;;24.00;99.90;;;;;;5067250;28;20029;-78
2021/08/31 11:44:21;;;;;;;5.18;2.20;;;23.90;99.90;;;;;;5065456;28;20036;-79
2021/08/31 11:46:52;;;;;;;2.67;1.52;;;23.60;99.90;;;;;;5065529;28;20508;-76
2021/08/31 11:49:24;;;;;;;6.25;1.98;;;23.40;99.90;;;;;;5065370;28;20056;-78
2021/08/31 11:52:00;;;;;;;3.78;1.80;;;23.30;99.90;;;;;;5066179;28;20036;-77
2021/08/31 11:54:29;;;;;;;4.95;2.35;;;23.40;99.90;;;;;;5065046;28;20138;-77
2021/08/31 11:56:59;;;;;;;8.43;2.45;;;23.70;99.90;;;;;;5081844;28;20082;-76
2021/08/31 11:59:50;;;;;;;4.10;1.75;;;23.70;99.90;;;;;;5067063;28;20056;-77
2021/08/31 12:02:28;;;;;;;2.90;1.70;;;23.90;99.90;;;;;;5081958;28;20033;-77
2021/08/31 12:04:57;;;;;;;4.25;1.95;;;23.90;99.90;;;;;;5081929;28;20032;-77
2021/08/31 12:07:26;;;;;;;3.38;1.80;;;23.90;99.90;;;;;;5066657;28;20021;-79
2021/08/31 12:10:06;;;;;;;9.93;1.50;;;24.00;99.90;;;;;;5064998;28;20404;-80
2021/08/31 12:12:32;;;;;;;4.80;2.25;;;24.10;99.90;;;;;;5066110;28;20052;-77
2021/08/31 12:14:59;;;;;;;3.83;1.80;;;24.00;99.90;;;;;;5064947;28;20025;-77
2021/08/31 12:17:34;;;;;;;4.63;1.92;;;23.80;99.90;;;;;;5064628;28;20057;-76
2021/08/31 12:20:02;;;;;;;;;;;23.50;99.90;;;;;;5081775;28;20052;-76
2021/08/31 12:22:37;;;;;;;2.50;1.58;;;23.50;99.90;;;;;;5064298;28;19905;-77
2021/08/31 12:25:03;;;;;;;6.40;2.20;;;23.90;99.90;;;;;;5065820;28;20032;-76
2021/08/31 12:27:47;;;;;;;4.90;2.25;;;24.30;99.90;;;;;;5081001;28;20085;-76
2021/08/31 12:30:18;;;;;;;4.57;2.35;;;24.60;99.90;;;;;;5065689;28;20840;-77
2021/08/31 12:35:59;;;;;;;2.63;1.60;;;24.30;99.90;;;;;;5081799;28;20415;-76
2021/08/31 12:38:31;;;;;;;5.78;2.03;;;24.60;99.90;;;;;;5082344;28;20041;-77
2021/08/31 12:41:20;;;;;;;2.88;1.77;;;24.90;99.90;;;;;;5080092;28;20059;-78
2021/08/31 12:43:49;;;;;;;4.03;2.03;;;25.20;99.90;;;;;;5079715;28;20037;-78
2021/08/31 12:46:44;;;;;;;5.65;2.10;;;25.40;99.90;;;;;;5079437;28;20033;-76
2021/08/31 12:49:13;;;;;;;3.78;1.83;;;25.10;99.90;;;;;;5077582;28;20043;-77
2021/08/31 12:51:42;;;;;;;4.13;2.00;;;24.90;99.90;;;;;;5081073;28;20036;-77
2021/08/31 12:54:28;;;;;;;3.85;1.85;;;25.00;99.90;;;;;;5080766;28;20033;-78